Aviation Digital Data Service (ADDS)

Output produced by METARs form (1638 UTC 16 June 2019)
found at http://www.aviationweather.gov/metar/data/
 
Forecast for: ROIG (ISHIGAKIJIMA ISL, JP)
Text: TAF ROIG 161109Z 1612/1718 11011KT 9999 FEW010 BKN020
Forecast period: 1200 UTC 16 June 2019 to 0300 UTC 17 June 2019
Forecast type: FROM: standard forecast or significant change
Winds: from the ESE (110 degrees) at 13 MPH (11 knots; 5.7 m/s)
Visibility: 6 or more miles 10+ km)
Ceiling: 2000 feet AGL
Clouds: few clouds at 1000 feet AGL
broken clouds at 2000 feet AGL
Weather: no significant weather forecast for this period
Text: TEMPO 1700/1703 4000 SHRA FEW008 BKN015 FEW020CB
Forecast period: 0000 to 0300 UTC 17 June 2019
Forecast type: TEMPORARY: The following changes expected for less than half the time period
Visibility: 2.49 miles (4.01 km)
Ceiling: 1500 feet AGL
Clouds: few clouds at 800 feet AGL
broken clouds at 1500 feet AGL
few clouds at 2000 feet AGL
Weather: SHRA  (rain showers)
Text: BECMG 1703/1706 18008KT
Forecast period: 0300 to 1800 UTC 17 June 2019
Forecast type: BECOMING: Conditions expected to become as follows by 0600 UTC 17 June 2019
Winds: from the S (180 degrees) at 9 MPH (8 knots; 4.1 m/s)
Visibility: 6 or more miles 10+ km)
Ceiling: 2000 feet AGL
Clouds: few clouds at 1000 feet AGL
broken clouds at 2000 feet AGL
Weather: no significant weather forecast for this period